sensor_id;sensor_type;location;lat;lon;timestamp;P1;durP1;ratioP1;P2;durP2;ratioP2
24713;SDS011;12820;51.580;5.010;2023-05-10T00:02:34;45.10;;;22.80;;
24713;SDS011;12820;51.580;5.010;2023-05-10T00:07:36;38.03;;;21.10;;
24713;SDS011;12820;51.580;5.010;2023-05-10T00:12:39;44.50;;;22.02;;
24713;SDS011;12820;51.580;5.010;2023-05-10T00:17:41;44.63;;;23.88;;
24713;SDS011;12820;51.580;5.010;2023-05-10T00:22:43;47.70;;;24.90;;
24713;SDS011;12820;51.580;5.010;2023-05-10T00:27:45;48.85;;;23.85;;
24713;SDS011;12820;51.580;5.010;2023-05-10T00:32:47;48.92;;;25.52;;
24713;SDS011;12820;51.580;5.010;2023-05-10T00:37:51;44.95;;;24.35;;
24713;SDS011;12820;51.580;5.010;2023-05-10T00:42:55;45.78;;;25.02;;
24713;SDS011;12820;51.580;5.010;2023-05-10T00:47:57;50.08;;;25.50;;
24713;SDS011;12820;51.580;5.010;2023-05-10T00:53:01;48.45;;;27.15;;
24713;SDS011;12820;51.580;5.010;2023-05-10T00:58:04;52.53;;;27.20;;
24713;SDS011;12820;51.580;5.010;2023-05-10T01:03:06;54.17;;;28.65;;
24713;SDS011;12820;51.580;5.010;2023-05-10T01:08:09;54.42;;;28.67;;
24713;SDS011;12820;51.580;5.010;2023-05-10T01:13:11;64.70;;;31.27;;
24713;SDS011;12820;51.580;5.010;2023-05-10T01:18:15;70.82;;;32.40;;
24713;SDS011;12820;51.580;5.010;2023-05-10T01:23:27;66.47;;;32.42;;
24713;SDS011;12820;51.580;5.010;2023-05-10T01:34:23;64.38;;;30.42;;
24713;SDS011;12820;51.580;5.010;2023-05-10T01:44:50;68.30;;;31.48;;
24713;SDS011;12820;51.580;5.010;2023-05-10T01:50:09;63.85;;;31.48;;
24713;SDS011;12820;51.580;5.010;2023-05-10T01:55:18;67.22;;;31.40;;
24713;SDS011;12820;51.580;5.010;2023-05-10T02:00:24;62.88;;;31.63;;
24713;SDS011;12820;51.580;5.010;2023-05-10T02:05:27;65.32;;;32.40;;
24713;SDS011;12820;51.580;5.010;2023-05-10T02:10:34;58.17;;;31.92;;
24713;SDS011;12820;51.580;5.010;2023-05-10T02:15:36;61.65;;;31.08;;
24713;SDS011;12820;51.580;5.010;2023-05-10T02:20:40;59.72;;;30.40;;
24713;SDS011;12820;51.580;5.010;2023-05-10T02:25:44;55.95;;;29.80;;
24713;SDS011;12820;51.580;5.010;2023-05-10T02:30:49;59.70;;;30.13;;
24713;SDS011;12820;51.580;5.010;2023-05-10T02:35:54;53.13;;;27.35;;
24713;SDS011;12820;51.580;5.010;2023-05-10T02:40:57;55.40;;;28.15;;
24713;SDS011;12820;51.580;5.010;2023-05-10T02:46:00;55.28;;;29.10;;
24713;SDS011;12820;51.580;5.010;2023-05-10T02:51:05;56.40;;;27.45;;
24713;SDS011;12820;51.580;5.010;2023-05-10T02:56:13;52.80;;;26.40;;
24713;SDS011;12820;51.580;5.010;2023-05-10T03:01:19;57.05;;;27.58;;
24713;SDS011;12820;51.580;5.010;2023-05-10T03:06:22;50.63;;;24.75;;
24713;SDS011;12820;51.580;5.010;2023-05-10T03:16:47;54.05;;;25.75;;
24713;SDS011;12820;51.580;5.010;2023-05-10T03:21:59;45.97;;;24.15;;
24713;SDS011;12820;51.580;5.010;2023-05-10T03:27:11;43.60;;;22.42;;
24713;SDS011;12820;51.580;5.010;2023-05-10T03:32:15;43.78;;;23.67;;
24713;SDS011;12820;51.580;5.010;2023-05-10T03:37:17;51.78;;;25.38;;
24713;SDS011;12820;51.580;5.010;2023-05-10T03:42:20;52.00;;;24.85;;
24713;SDS011;12820;51.580;5.010;2023-05-10T03:47:23;53.75;;;25.30;;
24713;SDS011;12820;51.580;5.010;2023-05-10T03:52:25;42.03;;;22.50;;
24713;SDS011;12820;51.580;5.010;2023-05-10T03:57:27;36.55;;;21.58;;
24713;SDS011;12820;51.580;5.010;2023-05-10T04:02:30;38.30;;;19.67;;
24713;SDS011;12820;51.580;5.010;2023-05-10T04:07:32;35.83;;;19.33;;
24713;SDS011;12820;51.580;5.010;2023-05-10T04:12:35;36.70;;;20.48;;
24713;SDS011;12820;51.580;5.010;2023-05-10T04:17:37;38.75;;;19.83;;
24713;SDS011;12820;51.580;5.010;2023-05-10T04:22:39;39.38;;;21.33;;
24713;SDS011;12820;51.580;5.010;2023-05-10T04:27:41;42.30;;;22.70;;
24713;SDS011;12820;51.580;5.010;2023-05-10T04:32:43;44.83;;;24.27;;
24713;SDS011;12820;51.580;5.010;2023-05-10T04:37:46;45.33;;;24.30;;
24713;SDS011;12820;51.580;5.010;2023-05-10T04:42:48;47.47;;;24.35;;
24713;SDS011;12820;51.580;5.010;2023-05-10T04:47:50;45.28;;;24.42;;
24713;SDS011;12820;51.580;5.010;2023-05-10T04:52:53;49.13;;;24.80;;
24713;SDS011;12820;51.580;5.010;2023-05-10T04:57:55;42.45;;;23.55;;
24713;SDS011;12820;51.580;5.010;2023-05-10T05:02:58;52.22;;;24.90;;
24713;SDS011;12820;51.580;5.010;2023-05-10T05:08:01;49.10;;;24.63;;
24713;SDS011;12820;51.580;5.010;2023-05-10T05:13:03;46.58;;;24.58;;
24713;SDS011;12820;51.580;5.010;2023-05-10T05:18:06;45.00;;;22.75;;
24713;SDS011;12820;51.580;5.010;2023-05-10T05:23:08;46.53;;;24.02;;
24713;SDS011;12820;51.580;5.010;2023-05-10T05:28:10;43.97;;;24.42;;
24713;SDS011;12820;51.580;5.010;2023-05-10T05:33:15;42.97;;;24.27;;
24713;SDS011;12820;51.580;5.010;2023-05-10T05:38:17;47.63;;;26.05;;
24713;SDS011;12820;51.580;5.010;2023-05-10T05:43:19;44.60;;;23.27;;
24713;SDS011;12820;51.580;5.010;2023-05-10T05:48:22;50.95;;;27.15;;
24713;SDS011;12820;51.580;5.010;2023-05-10T05:53:24;54.25;;;27.45;;
24713;SDS011;12820;51.580;5.010;2023-05-10T05:58:26;52.45;;;26.00;;
24713;SDS011;12820;51.580;5.010;2023-05-10T06:03:29;52.13;;;26.63;;
24713;SDS011;12820;51.580;5.010;2023-05-10T06:08:31;52.03;;;27.20;;
24713;SDS011;12820;51.580;5.010;2023-05-10T06:13:35;41.40;;;23.27;;
24713;SDS011;12820;51.580;5.010;2023-05-10T06:18:37;32.75;;;18.08;;
24713;SDS011;12820;51.580;5.010;2023-05-10T06:23:39;30.60;;;17.33;;
24713;SDS011;12820;51.580;5.010;2023-05-10T06:28:42;80.07;;;53.58;;
24713;SDS011;12820;51.580;5.010;2023-05-10T06:33:44;31.33;;;16.10;;
24713;SDS011;12820;51.580;5.010;2023-05-10T06:38:46;27.40;;;14.23;;
24713;SDS011;12820;51.580;5.010;2023-05-10T06:43:48;27.25;;;14.48;;
24713;SDS011;12820;51.580;5.010;2023-05-10T06:48:54;24.25;;;13.63;;
24713;SDS011;12820;51.580;5.010;2023-05-10T06:53:56;24.73;;;12.48;;
24713;SDS011;12820;51.580;5.010;2023-05-10T06:58:58;20.70;;;12.15;;
24713;SDS011;12820;51.580;5.010;2023-05-10T07:04:00;18.55;;;11.45;;
24713;SDS011;12820;51.580;5.010;2023-05-10T07:09:04;16.60;;;10.55;;
24713;SDS011;12820;51.580;5.010;2023-05-10T07:14:06;14.80;;;10.15;;
24713;SDS011;12820;51.580;5.010;2023-05-10T07:19:08;15.63;;;9.43;;
24713;SDS011;12820;51.580;5.010;2023-05-10T07:24:10;15.07;;;8.93;;
24713;SDS011;12820;51.580;5.010;2023-05-10T07:29:13;12.32;;;6.80;;
24713;SDS011;12820;51.580;5.010;2023-05-10T07:34:15;11.73;;;5.65;;
24713;SDS011;12820;51.580;5.010;2023-05-10T07:39:17;11.85;;;5.53;;
24713;SDS011;12820;51.580;5.010;2023-05-10T07:44:28;9.30;;;4.90;;
24713;SDS011;12820;51.580;5.010;2023-05-10T07:49:30;9.38;;;4.78;;
24713;SDS011;12820;51.580;5.010;2023-05-10T07:54:32;9.18;;;5.13;;
24713;SDS011;12820;51.580;5.010;2023-05-10T07:59:35;8.18;;;4.18;;
24713;SDS011;12820;51.580;5.010;2023-05-10T08:04:38;8.70;;;4.57;;
24713;SDS011;12820;51.580;5.010;2023-05-10T08:09:40;6.90;;;4.00;;
24713;SDS011;12820;51.580;5.010;2023-05-10T08:14:42;10.98;;;4.72;;
24713;SDS011;12820;51.580;5.010;2023-05-10T08:19:44;8.90;;;3.38;;
24713;SDS011;12820;51.580;5.010;2023-05-10T08:24:47;9.63;;;4.03;;
24713;SDS011;12820;51.580;5.010;2023-05-10T08:29:49;9.52;;;4.00;;
24713;SDS011;12820;51.580;5.010;2023-05-10T08:34:53;11.18;;;4.60;;
24713;SDS011;12820;51.580;5.010;2023-05-10T08:39:55;8.88;;;4.88;;
24713;SDS011;12820;51.580;5.010;2023-05-10T08:44:57;8.55;;;4.57;;
24713;SDS011;12820;51.580;5.010;2023-05-10T08:50:01;10.05;;;5.57;;
24713;SDS011;12820;51.580;5.010;2023-05-10T08:55:04;9.15;;;4.65;;
24713;SDS011;12820;51.580;5.010;2023-05-10T09:00:07;9.32;;;4.90;;
24713;SDS011;12820;51.580;5.010;2023-05-10T09:05:10;8.32;;;4.70;;
24713;SDS011;12820;51.580;5.010;2023-05-10T09:10:12;8.50;;;4.10;;
24713;SDS011;12820;51.580;5.010;2023-05-10T09:15:15;9.32;;;4.50;;
24713;SDS011;12820;51.580;5.010;2023-05-10T09:20:18;5.88;;;2.70;;
24713;SDS011;12820;51.580;5.010;2023-05-10T09:25:21;6.70;;;3.78;;
24713;SDS011;12820;51.580;5.010;2023-05-10T09:30:25;7.75;;;3.92;;
24713;SDS011;12820;51.580;5.010;2023-05-10T09:35:29;8.65;;;4.05;;
24713;SDS011;12820;51.580;5.010;2023-05-10T09:40:33;8.68;;;3.75;;
24713;SDS011;12820;51.580;5.010;2023-05-10T09:45:35;9.82;;;4.35;;
24713;SDS011;12820;51.580;5.010;2023-05-10T09:50:40;8.00;;;3.60;;
24713;SDS011;12820;51.580;5.010;2023-05-10T09:55:44;11.70;;;3.53;;
24713;SDS011;12820;51.580;5.010;2023-05-10T10:00:48;9.55;;;3.47;;
24713;SDS011;12820;51.580;5.010;2023-05-10T10:05:53;7.28;;;3.80;;
24713;SDS011;12820;51.580;5.010;2023-05-10T10:10:57;9.68;;;3.83;;
24713;SDS011;12820;51.580;5.010;2023-05-10T10:16:00;7.40;;;3.92;;
24713;SDS011;12820;51.580;5.010;2023-05-10T10:21:02;5.38;;;2.28;;
24713;SDS011;12820;51.580;5.010;2023-05-10T10:26:04;5.47;;;2.22;;
24713;SDS011;12820;51.580;5.010;2023-05-10T10:31:13;7.45;;;2.72;;
24713;SDS011;12820;51.580;5.010;2023-05-10T10:36:26;7.28;;;3.00;;
24713;SDS011;12820;51.580;5.010;2023-05-10T10:41:30;7.28;;;3.67;;
24713;SDS011;12820;51.580;5.010;2023-05-10T10:46:32;5.53;;;2.40;;
24713;SDS011;12820;51.580;5.010;2023-05-10T10:51:36;6.43;;;2.55;;
24713;SDS011;12820;51.580;5.010;2023-05-10T10:56:39;6.70;;;2.40;;
24713;SDS011;12820;51.580;5.010;2023-05-10T11:01:41;6.95;;;2.30;;
24713;SDS011;12820;51.580;5.010;2023-05-10T11:06:46;6.18;;;2.20;;
24713;SDS011;12820;51.580;5.010;2023-05-10T11:11:50;3.42;;;1.77;;
24713;SDS011;12820;51.580;5.010;2023-05-10T11:16:54;6.63;;;2.45;;
24713;SDS011;12820;51.580;5.010;2023-05-10T11:27:05;4.82;;;2.42;;
24713;SDS011;12820;51.580;5.010;2023-05-10T11:32:07;4.57;;;1.92;;
24713;SDS011;12820;51.580;5.010;2023-05-10T11:37:10;5.20;;;2.42;;
24713;SDS011;12820;51.580;5.010;2023-05-10T11:42:12;4.97;;;1.80;;
24713;SDS011;12820;51.580;5.010;2023-05-10T11:47:14;4.15;;;2.17;;
24713;SDS011;12820;51.580;5.010;2023-05-10T11:52:17;3.60;;;1.38;;
24713;SDS011;12820;51.580;5.010;2023-05-10T11:57:25;5.88;;;2.92;;
24713;SDS011;12820;51.580;5.010;2023-05-10T12:02:28;6.25;;;2.83;;
24713;SDS011;12820;51.580;5.010;2023-05-10T12:07:30;4.13;;;1.38;;
24713;SDS011;12820;51.580;5.010;2023-05-10T12:12:40;5.13;;;1.80;;
24713;SDS011;12820;51.580;5.010;2023-05-10T12:17:44;4.30;;;1.48;;
24713;SDS011;12820;51.580;5.010;2023-05-10T12:22:50;3.58;;;1.50;;
24713;SDS011;12820;51.580;5.010;2023-05-10T12:27:55;6.18;;;1.42;;
24713;SDS011;12820;51.580;5.010;2023-05-10T12:33:01;4.78;;;1.63;;
24713;SDS011;12820;51.580;5.010;2023-05-10T12:38:22;6.82;;;2.78;;
24713;SDS011;12820;51.580;5.010;2023-05-10T12:43:31;5.45;;;2.90;;
24713;SDS011;12820;51.580;5.010;2023-05-10T12:48:34;6.40;;;3.33;;
24713;SDS011;12820;51.580;5.010;2023-05-10T12:53:37;4.93;;;1.95;;
24713;SDS011;12820;51.580;5.010;2023-05-10T12:58:45;7.55;;;3.40;;
24713;SDS011;12820;51.580;5.010;2023-05-10T13:03:50;3.42;;;1.55;;
24713;SDS011;12820;51.580;5.010;2023-05-10T13:08:53;4.22;;;2.15;;
24713;SDS011;12820;51.580;5.010;2023-05-10T13:13:55;8.15;;;2.53;;
24713;SDS011;12820;51.580;5.010;2023-05-10T13:18:57;4.13;;;2.60;;
24713;SDS011;12820;51.580;5.010;2023-05-10T13:24:00;4.63;;;2.50;;
24713;SDS011;12820;51.580;5.010;2023-05-10T13:29:03;3.53;;;1.95;;
24713;SDS011;12820;51.580;5.010;2023-05-10T13:34:05;2.95;;;1.00;;
24713;SDS011;12820;51.580;5.010;2023-05-10T13:39:07;6.25;;;1.80;;
24713;SDS011;12820;51.580;5.010;2023-05-10T13:44:11;5.57;;;2.30;;
24713;SDS011;12820;51.580;5.010;2023-05-10T13:49:14;4.53;;;1.67;;
24713;SDS011;12820;51.580;5.010;2023-05-10T13:54:16;5.10;;;1.80;;
24713;SDS011;12820;51.580;5.010;2023-05-10T13:59:21;3.30;;;1.45;;
24713;SDS011;12820;51.580;5.010;2023-05-10T14:04:23;3.92;;;1.25;;
24713;SDS011;12820;51.580;5.010;2023-05-10T14:09:25;4.20;;;1.77;;
24713;SDS011;12820;51.580;5.010;2023-05-10T14:14:27;5.47;;;2.10;;
24713;SDS011;12820;51.580;5.010;2023-05-10T14:19:32;4.35;;;1.95;;
24713;SDS011;12820;51.580;5.010;2023-05-10T14:24:35;8.00;;;2.15;;
24713;SDS011;12820;51.580;5.010;2023-05-10T14:29:38;5.20;;;2.05;;
24713;SDS011;12820;51.580;5.010;2023-05-10T14:34:40;5.65;;;2.20;;
24713;SDS011;12820;51.580;5.010;2023-05-10T14:39:42;6.72;;;2.20;;
24713;SDS011;12820;51.580;5.010;2023-05-10T14:44:44;6.25;;;2.20;;
24713;SDS011;12820;51.580;5.010;2023-05-10T14:49:46;7.22;;;2.30;;
24713;SDS011;12820;51.580;5.010;2023-05-10T14:54:49;6.57;;;2.60;;
24713;SDS011;12820;51.580;5.010;2023-05-10T14:59:52;6.13;;;2.20;;
24713;SDS011;12820;51.580;5.010;2023-05-10T15:04:55;4.90;;;2.63;;
24713;SDS011;12820;51.580;5.010;2023-05-10T15:09:57;5.38;;;2.65;;
24713;SDS011;12820;51.580;5.010;2023-05-10T15:15:00;7.57;;;3.55;;
24713;SDS011;12820;51.580;5.010;2023-05-10T15:20:02;5.93;;;3.05;;
24713;SDS011;12820;51.580;5.010;2023-05-10T15:25:05;5.22;;;2.65;;
24713;SDS011;12820;51.580;5.010;2023-05-10T15:30:09;6.72;;;3.10;;
24713;SDS011;12820;51.580;5.010;2023-05-10T15:35:12;6.90;;;3.45;;
24713;SDS011;12820;51.580;5.010;2023-05-10T15:40:15;8.43;;;3.83;;
24713;SDS011;12820;51.580;5.010;2023-05-10T15:45:17;8.32;;;4.88;;
24713;SDS011;12820;51.580;5.010;2023-05-10T15:50:20;9.27;;;5.22;;
24713;SDS011;12820;51.580;5.010;2023-05-10T15:55:23;9.93;;;5.10;;
24713;SDS011;12820;51.580;5.010;2023-05-10T16:00:25;9.38;;;4.78;;
24713;SDS011;12820;51.580;5.010;2023-05-10T16:05:27;6.88;;;4.25;;
24713;SDS011;12820;51.580;5.010;2023-05-10T16:10:33;6.05;;;3.60;;
24713;SDS011;12820;51.580;5.010;2023-05-10T16:15:35;5.15;;;2.97;;
24713;SDS011;12820;51.580;5.010;2023-05-10T16:20:37;4.90;;;2.70;;
24713;SDS011;12820;51.580;5.010;2023-05-10T16:25:40;5.88;;;2.28;;
24713;SDS011;12820;51.580;5.010;2023-05-10T16:30:42;7.20;;;2.45;;
24713;SDS011;12820;51.580;5.010;2023-05-10T16:35:45;5.70;;;2.97;;
24713;SDS011;12820;51.580;5.010;2023-05-10T16:40:47;5.93;;;2.72;;
24713;SDS011;12820;51.580;5.010;2023-05-10T16:45:50;5.20;;;3.10;;
24713;SDS011;12820;51.580;5.010;2023-05-10T16:50:52;6.15;;;3.10;;
24713;SDS011;12820;51.580;5.010;2023-05-10T16:55:54;7.10;;;3.70;;
24713;SDS011;12820;51.580;5.010;2023-05-10T17:00:56;8.32;;;3.42;;
24713;SDS011;12820;51.580;5.010;2023-05-10T17:05:59;6.03;;;3.22;;
24713;SDS011;12820;51.580;5.010;2023-05-10T17:11:01;6.03;;;3.00;;
24713;SDS011;12820;51.580;5.010;2023-05-10T17:16:04;6.45;;;3.00;;
24713;SDS011;12820;51.580;5.010;2023-05-10T17:21:07;6.43;;;3.80;;
24713;SDS011;12820;51.580;5.010;2023-05-10T17:26:10;8.27;;;3.80;;
24713;SDS011;12820;51.580;5.010;2023-05-10T17:31:12;10.70;;;4.60;;
24713;SDS011;12820;51.580;5.010;2023-05-10T17:36:15;8.52;;;4.60;;
24713;SDS011;12820;51.580;5.010;2023-05-10T17:41:17;9.45;;;4.18;;
24713;SDS011;12820;51.580;5.010;2023-05-10T17:46:19;8.60;;;4.72;;
24713;SDS011;12820;51.580;5.010;2023-05-10T17:51:21;10.30;;;5.25;;
24713;SDS011;12820;51.580;5.010;2023-05-10T17:56:23;11.00;;;5.65;;
24713;SDS011;12820;51.580;5.010;2023-05-10T18:01:26;11.65;;;6.20;;
24713;SDS011;12820;51.580;5.010;2023-05-10T18:06:28;10.90;;;5.40;;
24713;SDS011;12820;51.580;5.010;2023-05-10T18:11:30;9.68;;;5.72;;
24713;SDS011;12820;51.580;5.010;2023-05-10T18:16:32;9.40;;;5.20;;
24713;SDS011;12820;51.580;5.010;2023-05-10T18:21:35;12.23;;;6.00;;
24713;SDS011;12820;51.580;5.010;2023-05-10T18:26:39;9.57;;;5.80;;
24713;SDS011;12820;51.580;5.010;2023-05-10T18:31:41;11.50;;;6.47;;
24713;SDS011;12820;51.580;5.010;2023-05-10T18:36:43;13.23;;;7.15;;
24713;SDS011;12820;51.580;5.010;2023-05-10T18:41:46;10.68;;;6.32;;
24713;SDS011;12820;51.580;5.010;2023-05-10T18:46:51;9.07;;;5.78;;
24713;SDS011;12820;51.580;5.010;2023-05-10T18:51:55;12.73;;;6.95;;
24713;SDS011;12820;51.580;5.010;2023-05-10T18:56:57;11.00;;;6.35;;
24713;SDS011;12820;51.580;5.010;2023-05-10T19:01:59;15.40;;;7.43;;
24713;SDS011;12820;51.580;5.010;2023-05-10T19:07:02;11.55;;;7.10;;
24713;SDS011;12820;51.580;5.010;2023-05-10T19:12:04;13.73;;;7.00;;
24713;SDS011;12820;51.580;5.010;2023-05-10T19:17:07;17.20;;;7.97;;
24713;SDS011;12820;51.580;5.010;2023-05-10T19:22:09;13.65;;;8.18;;
24713;SDS011;12820;51.580;5.010;2023-05-10T19:27:14;16.40;;;8.70;;
24713;SDS011;12820;51.580;5.010;2023-05-10T19:32:18;12.02;;;8.15;;
24713;SDS011;12820;51.580;5.010;2023-05-10T19:37:21;15.88;;;8.35;;
24713;SDS011;12820;51.580;5.010;2023-05-10T19:42:24;18.10;;;9.65;;
24713;SDS011;12820;51.580;5.010;2023-05-10T19:47:26;15.90;;;8.25;;
24713;SDS011;12820;51.580;5.010;2023-05-10T19:52:28;18.48;;;9.43;;
24713;SDS011;12820;51.580;5.010;2023-05-10T19:57:31;16.98;;;9.35;;
24713;SDS011;12820;51.580;5.010;2023-05-10T20:02:36;16.63;;;9.38;;
24713;SDS011;12820;51.580;5.010;2023-05-10T20:07:38;17.40;;;10.02;;
24713;SDS011;12820;51.580;5.010;2023-05-10T20:12:44;16.63;;;9.68;;
24713;SDS011;12820;51.580;5.010;2023-05-10T20:17:55;17.58;;;9.80;;
24713;SDS011;12820;51.580;5.010;2023-05-10T20:23:00;15.35;;;9.43;;
24713;SDS011;12820;51.580;5.010;2023-05-10T20:28:02;16.52;;;8.90;;
24713;SDS011;12820;51.580;5.010;2023-05-10T20:33:06;17.08;;;10.02;;
24713;SDS011;12820;51.580;5.010;2023-05-10T20:38:09;17.80;;;10.40;;
24713;SDS011;12820;51.580;5.010;2023-05-10T20:43:11;18.05;;;10.48;;
24713;SDS011;12820;51.580;5.010;2023-05-10T20:48:13;16.27;;;10.00;;
24713;SDS011;12820;51.580;5.010;2023-05-10T20:53:16;20.88;;;11.65;;
24713;SDS011;12820;51.580;5.010;2023-05-10T20:58:19;20.45;;;12.40;;
24713;SDS011;12820;51.580;5.010;2023-05-10T21:03:21;20.33;;;12.10;;
24713;SDS011;12820;51.580;5.010;2023-05-10T21:08:24;27.17;;;12.60;;
24713;SDS011;12820;51.580;5.010;2023-05-10T21:13:26;23.13;;;13.25;;
24713;SDS011;12820;51.580;5.010;2023-05-10T21:18:28;22.95;;;12.50;;
24713;SDS011;12820;51.580;5.010;2023-05-10T21:23:31;26.35;;;13.65;;
24713;SDS011;12820;51.580;5.010;2023-05-10T21:28:35;24.02;;;15.25;;
24713;SDS011;12820;51.580;5.010;2023-05-10T21:33:41;29.63;;;14.77;;
24713;SDS011;12820;51.580;5.010;2023-05-10T21:38:43;27.17;;;15.75;;
24713;SDS011;12820;51.580;5.010;2023-05-10T21:43:45;23.88;;;15.18;;
24713;SDS011;12820;51.580;5.010;2023-05-10T21:48:47;31.15;;;15.45;;
24713;SDS011;12820;51.580;5.010;2023-05-10T21:53:50;25.35;;;15.50;;
24713;SDS011;12820;51.580;5.010;2023-05-10T21:58:52;25.50;;;16.15;;
24713;SDS011;12820;51.580;5.010;2023-05-10T22:03:54;28.55;;;16.27;;
24713;SDS011;12820;51.580;5.010;2023-05-10T22:08:59;28.52;;;17.35;;
24713;SDS011;12820;51.580;5.010;2023-05-10T22:14:01;28.17;;;16.23;;
24713;SDS011;12820;51.580;5.010;2023-05-10T22:19:03;28.23;;;17.80;;
24713;SDS011;12820;51.580;5.010;2023-05-10T22:24:06;28.30;;;17.30;;
24713;SDS011;12820;51.580;5.010;2023-05-10T22:29:08;31.70;;;17.77;;
24713;SDS011;12820;51.580;5.010;2023-05-10T22:34:10;32.60;;;18.52;;
24713;SDS011;12820;51.580;5.010;2023-05-10T22:39:12;27.83;;;18.38;;
24713;SDS011;12820;51.580;5.010;2023-05-10T22:44:14;29.85;;;18.33;;
24713;SDS011;12820;51.580;5.010;2023-05-10T22:49:16;30.23;;;17.85;;
24713;SDS011;12820;51.580;5.010;2023-05-10T22:54:19;34.47;;;18.77;;
24713;SDS011;12820;51.580;5.010;2023-05-10T22:59:21;30.30;;;18.40;;
24713;SDS011;12820;51.580;5.010;2023-05-10T23:04:23;29.05;;;18.17;;
24713;SDS011;12820;51.580;5.010;2023-05-10T23:09:25;31.65;;;18.75;;
24713;SDS011;12820;51.580;5.010;2023-05-10T23:14:28;33.22;;;19.65;;
24713;SDS011;12820;51.580;5.010;2023-05-10T23:19:30;32.30;;;18.88;;
24713;SDS011;12820;51.580;5.010;2023-05-10T23:24:32;32.70;;;18.45;;
24713;SDS011;12820;51.580;5.010;2023-05-10T23:29:34;32.70;;;19.60;;
24713;SDS011;12820;51.580;5.010;2023-05-10T23:34:36;33.25;;;19.35;;
24713;SDS011;12820;51.580;5.010;2023-05-10T23:39:38;32.55;;;19.05;;
24713;SDS011;12820;51.580;5.010;2023-05-10T23:44:41;33.63;;;18.92;;
24713;SDS011;12820;51.580;5.010;2023-05-10T23:49:43;35.20;;;18.63;;
24713;SDS011;12820;51.580;5.010;2023-05-10T23:54:45;33.42;;;18.85;;
24713;SDS011;12820;51.580;5.010;2023-05-10T23:59:48;43.75;;;18.63;;
